sensor_id;sensor_type;location;lat;lon;timestamp;P1;durP1;ratioP1;P2;durP2;ratioP2
67839;SDS011;54636;51.684;5.142;2023-07-13T00:00:23;8.07;;;1.88;;
67839;SDS011;54636;51.684;5.142;2023-07-13T00:02:48;4.57;;;1.92;;
67839;SDS011;54636;51.684;5.142;2023-07-13T00:05:13;5.53;;;1.65;;
67839;SDS011;54636;51.684;5.142;2023-07-13T00:07:39;4.15;;;1.70;;
67839;SDS011;54636;51.684;5.142;2023-07-13T00:10:04;9.25;;;2.25;;
67839;SDS011;54636;51.684;5.142;2023-07-13T00:12:32;5.22;;;1.63;;
67839;SDS011;54636;51.684;5.142;2023-07-13T00:15:00;7.57;;;1.88;;
67839;SDS011;54636;51.684;5.142;2023-07-13T00:17:28;8.00;;;1.65;;
67839;SDS011;54636;51.684;5.142;2023-07-13T00:19:54;6.82;;;1.90;;
67839;SDS011;54636;51.684;5.142;2023-07-13T00:22:21;8.07;;;1.90;;
67839;SDS011;54636;51.684;5.142;2023-07-13T00:24:47;11.80;;;1.90;;
67839;SDS011;54636;51.684;5.142;2023-07-13T00:27:12;4.80;;;1.90;;
67839;SDS011;54636;51.684;5.142;2023-07-13T00:29:41;7.05;;;2.20;;
67839;SDS011;54636;51.684;5.142;2023-07-13T00:32:07;7.68;;;2.50;;
67839;SDS011;54636;51.684;5.142;2023-07-13T00:34:34;6.53;;;1.75;;
67839;SDS011;54636;51.684;5.142;2023-07-13T00:36:59;8.07;;;2.13;;
67839;SDS011;54636;51.684;5.142;2023-07-13T00:39:25;5.50;;;1.75;;
67839;SDS011;54636;51.684;5.142;2023-07-13T00:41:51;10.57;;;1.92;;
67839;SDS011;54636;51.684;5.142;2023-07-13T00:44:18;5.75;;;1.75;;
67839;SDS011;54636;51.684;5.142;2023-07-13T00:46:45;8.23;;;2.42;;
67839;SDS011;54636;51.684;5.142;2023-07-13T00:49:12;5.72;;;2.05;;
67839;SDS011;54636;51.684;5.142;2023-07-13T00:51:44;5.88;;;1.58;;
67839;SDS011;54636;51.684;5.142;2023-07-13T00:54:16;12.43;;;2.47;;
67839;SDS011;54636;51.684;5.142;2023-07-13T00:56:44;10.05;;;2.20;;
67839;SDS011;54636;51.684;5.142;2023-07-13T00:59:14;7.72;;;2.40;;
67839;SDS011;54636;51.684;5.142;2023-07-13T01:01:44;8.60;;;2.10;;
67839;SDS011;54636;51.684;5.142;2023-07-13T01:04:10;7.95;;;1.70;;
67839;SDS011;54636;51.684;5.142;2023-07-13T01:06:36;13.18;;;2.05;;
67839;SDS011;54636;51.684;5.142;2023-07-13T01:09:03;5.88;;;2.00;;
67839;SDS011;54636;51.684;5.142;2023-07-13T01:11:29;7.63;;;1.98;;
67839;SDS011;54636;51.684;5.142;2023-07-13T01:13:55;7.70;;;2.88;;
67839;SDS011;54636;51.684;5.142;2023-07-13T01:16:27;8.23;;;2.10;;
67839;SDS011;54636;51.684;5.142;2023-07-13T01:18:55;3.75;;;1.67;;
67839;SDS011;54636;51.684;5.142;2023-07-13T01:21:23;7.95;;;2.08;;
67839;SDS011;54636;51.684;5.142;2023-07-13T01:23:49;7.95;;;2.20;;
67839;SDS011;54636;51.684;5.142;2023-07-13T01:26:14;8.95;;;2.60;;
67839;SDS011;54636;51.684;5.142;2023-07-13T01:28:39;6.22;;;1.85;;
67839;SDS011;54636;51.684;5.142;2023-07-13T01:31:05;8.68;;;2.97;;
67839;SDS011;54636;51.684;5.142;2023-07-13T01:33:31;11.38;;;2.90;;
67839;SDS011;54636;51.684;5.142;2023-07-13T01:35:56;5.97;;;2.17;;
67839;SDS011;54636;51.684;5.142;2023-07-13T01:38:24;12.27;;;2.53;;
67839;SDS011;54636;51.684;5.142;2023-07-13T01:40:51;9.23;;;2.45;;
67839;SDS011;54636;51.684;5.142;2023-07-13T01:43:17;9.93;;;2.65;;
67839;SDS011;54636;51.684;5.142;2023-07-13T01:45:43;8.23;;;2.45;;
67839;SDS011;54636;51.684;5.142;2023-07-13T01:48:09;8.05;;;2.33;;
67839;SDS011;54636;51.684;5.142;2023-07-13T01:50:35;9.13;;;2.90;;
67839;SDS011;54636;51.684;5.142;2023-07-13T01:53:00;11.63;;;2.53;;
67839;SDS011;54636;51.684;5.142;2023-07-13T01:55:27;9.90;;;2.55;;
67839;SDS011;54636;51.684;5.142;2023-07-13T01:57:52;14.82;;;2.75;;
67839;SDS011;54636;51.684;5.142;2023-07-13T02:00:18;10.15;;;2.80;;
67839;SDS011;54636;51.684;5.142;2023-07-13T02:02:44;11.50;;;3.00;;
67839;SDS011;54636;51.684;5.142;2023-07-13T02:05:09;9.93;;;2.97;;
67839;SDS011;54636;51.684;5.142;2023-07-13T02:07:36;9.60;;;2.72;;
67839;SDS011;54636;51.684;5.142;2023-07-13T02:10:02;9.60;;;2.72;;
67839;SDS011;54636;51.684;5.142;2023-07-13T02:12:27;11.43;;;3.35;;
67839;SDS011;54636;51.684;5.142;2023-07-13T02:14:53;8.60;;;2.67;;
67839;SDS011;54636;51.684;5.142;2023-07-13T02:17:18;14.13;;;3.13;;
67839;SDS011;54636;51.684;5.142;2023-07-13T02:19:43;8.57;;;2.67;;
67839;SDS011;54636;51.684;5.142;2023-07-13T02:22:09;14.65;;;2.92;;
67839;SDS011;54636;51.684;5.142;2023-07-13T02:24:34;9.68;;;3.60;;
67839;SDS011;54636;51.684;5.142;2023-07-13T02:27:00;10.85;;;2.88;;
67839;SDS011;54636;51.684;5.142;2023-07-13T02:29:25;14.07;;;3.30;;
67839;SDS011;54636;51.684;5.142;2023-07-13T02:31:50;18.27;;;3.00;;
67839;SDS011;54636;51.684;5.142;2023-07-13T02:34:16;13.32;;;3.33;;
67839;SDS011;54636;51.684;5.142;2023-07-13T02:36:41;11.77;;;3.38;;
67839;SDS011;54636;51.684;5.142;2023-07-13T02:39:07;14.13;;;3.75;;
67839;SDS011;54636;51.684;5.142;2023-07-13T02:41:32;12.10;;;3.65;;
67839;SDS011;54636;51.684;5.142;2023-07-13T02:43:58;9.70;;;3.13;;
67839;SDS011;54636;51.684;5.142;2023-07-13T02:46:29;15.13;;;3.28;;
67839;SDS011;54636;51.684;5.142;2023-07-13T02:48:55;16.90;;;4.03;;
67839;SDS011;54636;51.684;5.142;2023-07-13T02:51:20;12.93;;;3.38;;
67839;SDS011;54636;51.684;5.142;2023-07-13T02:53:46;16.23;;;4.72;;
67839;SDS011;54636;51.684;5.142;2023-07-13T02:56:11;13.00;;;3.88;;
67839;SDS011;54636;51.684;5.142;2023-07-13T02:58:37;17.98;;;4.10;;
67839;SDS011;54636;51.684;5.142;2023-07-13T03:01:05;13.15;;;3.90;;
67839;SDS011;54636;51.684;5.142;2023-07-13T03:03:33;9.60;;;3.80;;
67839;SDS011;54636;51.684;5.142;2023-07-13T03:05:59;18.58;;;4.88;;
67839;SDS011;54636;51.684;5.142;2023-07-13T03:08:27;15.55;;;3.95;;
67839;SDS011;54636;51.684;5.142;2023-07-13T03:11:02;16.42;;;4.00;;
67839;SDS011;54636;51.684;5.142;2023-07-13T03:13:30;12.65;;;3.95;;
67839;SDS011;54636;51.684;5.142;2023-07-13T03:15:55;15.25;;;4.43;;
67839;SDS011;54636;51.684;5.142;2023-07-13T03:18:21;12.25;;;4.40;;
67839;SDS011;54636;51.684;5.142;2023-07-13T03:20:46;16.13;;;4.00;;
67839;SDS011;54636;51.684;5.142;2023-07-13T03:23:11;12.40;;;3.47;;
67839;SDS011;54636;51.684;5.142;2023-07-13T03:25:37;12.70;;;4.28;;
67839;SDS011;54636;51.684;5.142;2023-07-13T03:28:06;8.23;;;3.72;;
67839;SDS011;54636;51.684;5.142;2023-07-13T03:30:31;18.38;;;4.30;;
67839;SDS011;54636;51.684;5.142;2023-07-13T03:32:56;11.10;;;3.85;;
67839;SDS011;54636;51.684;5.142;2023-07-13T03:35:22;11.23;;;4.00;;
67839;SDS011;54636;51.684;5.142;2023-07-13T03:37:47;12.48;;;4.13;;
67839;SDS011;54636;51.684;5.142;2023-07-13T03:40:12;14.05;;;4.25;;
67839;SDS011;54636;51.684;5.142;2023-07-13T03:42:38;14.32;;;4.53;;
67839;SDS011;54636;51.684;5.142;2023-07-13T03:45:03;16.10;;;4.95;;
67839;SDS011;54636;51.684;5.142;2023-07-13T03:47:30;16.67;;;4.30;;
67839;SDS011;54636;51.684;5.142;2023-07-13T03:49:55;10.95;;;3.90;;
67839;SDS011;54636;51.684;5.142;2023-07-13T03:52:20;15.88;;;4.30;;
67839;SDS011;54636;51.684;5.142;2023-07-13T03:54:46;14.57;;;4.75;;
67839;SDS011;54636;51.684;5.142;2023-07-13T03:57:12;12.50;;;4.78;;
67839;SDS011;54636;51.684;5.142;2023-07-13T03:59:37;17.63;;;5.18;;
67839;SDS011;54636;51.684;5.142;2023-07-13T04:02:02;16.02;;;5.25;;
67839;SDS011;54636;51.684;5.142;2023-07-13T04:04:29;22.73;;;5.30;;
67839;SDS011;54636;51.684;5.142;2023-07-13T04:06:55;22.98;;;6.45;;
67839;SDS011;54636;51.684;5.142;2023-07-13T04:09:23;20.75;;;4.55;;
67839;SDS011;54636;51.684;5.142;2023-07-13T04:11:49;14.65;;;5.13;;
67839;SDS011;54636;51.684;5.142;2023-07-13T04:14:14;15.63;;;5.53;;
67839;SDS011;54636;51.684;5.142;2023-07-13T04:16:39;21.60;;;5.65;;
67839;SDS011;54636;51.684;5.142;2023-07-13T04:19:05;24.23;;;7.10;;
67839;SDS011;54636;51.684;5.142;2023-07-13T04:21:30;12.70;;;5.35;;
67839;SDS011;54636;51.684;5.142;2023-07-13T04:23:56;18.88;;;5.85;;
67839;SDS011;54636;51.684;5.142;2023-07-13T04:26:22;23.10;;;6.57;;
67839;SDS011;54636;51.684;5.142;2023-07-13T04:28:48;18.08;;;5.93;;
67839;SDS011;54636;51.684;5.142;2023-07-13T04:31:14;13.65;;;5.60;;
67839;SDS011;54636;51.684;5.142;2023-07-13T04:33:40;18.35;;;5.53;;
67839;SDS011;54636;51.684;5.142;2023-07-13T04:36:05;12.55;;;4.78;;
67839;SDS011;54636;51.684;5.142;2023-07-13T04:38:32;21.15;;;6.40;;
67839;SDS011;54636;51.684;5.142;2023-07-13T04:41:02;17.30;;;5.10;;
67839;SDS011;54636;51.684;5.142;2023-07-13T04:43:31;21.67;;;5.53;;
67839;SDS011;54636;51.684;5.142;2023-07-13T04:46:02;16.05;;;5.10;;
67839;SDS011;54636;51.684;5.142;2023-07-13T04:48:28;18.75;;;6.28;;
67839;SDS011;54636;51.684;5.142;2023-07-13T04:50:55;16.55;;;6.68;;
67839;SDS011;54636;51.684;5.142;2023-07-13T04:53:21;19.33;;;6.25;;
67839;SDS011;54636;51.684;5.142;2023-07-13T04:55:47;17.25;;;5.90;;
67839;SDS011;54636;51.684;5.142;2023-07-13T04:58:12;30.52;;;7.50;;
67839;SDS011;54636;51.684;5.142;2023-07-13T05:00:38;16.70;;;6.22;;
67839;SDS011;54636;51.684;5.142;2023-07-13T05:03:04;23.60;;;6.43;;
67839;SDS011;54636;51.684;5.142;2023-07-13T05:05:30;19.65;;;6.80;;
67839;SDS011;54636;51.684;5.142;2023-07-13T05:07:55;17.75;;;7.25;;
67839;SDS011;54636;51.684;5.142;2023-07-13T05:10:21;18.88;;;5.57;;
67839;SDS011;54636;51.684;5.142;2023-07-13T05:12:46;16.08;;;6.88;;
67839;SDS011;54636;51.684;5.142;2023-07-13T05:15:12;21.88;;;6.93;;
67839;SDS011;54636;51.684;5.142;2023-07-13T05:17:37;15.45;;;5.93;;
67839;SDS011;54636;51.684;5.142;2023-07-13T05:20:04;17.33;;;6.70;;
67839;SDS011;54636;51.684;5.142;2023-07-13T05:22:31;19.75;;;6.45;;
67839;SDS011;54636;51.684;5.142;2023-07-13T05:24:56;20.58;;;5.95;;
67839;SDS011;54636;51.684;5.142;2023-07-13T05:27:21;30.63;;;6.13;;
67839;SDS011;54636;51.684;5.142;2023-07-13T05:29:48;19.90;;;6.03;;
67839;SDS011;54636;51.684;5.142;2023-07-13T05:32:14;20.13;;;6.35;;
67839;SDS011;54636;51.684;5.142;2023-07-13T05:34:39;17.65;;;6.15;;
67839;SDS011;54636;51.684;5.142;2023-07-13T05:37:04;17.88;;;6.40;;
67839;SDS011;54636;51.684;5.142;2023-07-13T05:39:30;19.65;;;6.63;;
67839;SDS011;54636;51.684;5.142;2023-07-13T05:41:55;26.15;;;6.32;;
67839;SDS011;54636;51.684;5.142;2023-07-13T05:44:21;15.48;;;6.25;;
67839;SDS011;54636;51.684;5.142;2023-07-13T05:46:46;21.67;;;5.82;;
67839;SDS011;54636;51.684;5.142;2023-07-13T05:49:11;19.15;;;7.00;;
67839;SDS011;54636;51.684;5.142;2023-07-13T05:51:37;25.50;;;6.97;;
67839;SDS011;54636;51.684;5.142;2023-07-13T05:54:02;19.75;;;6.85;;
67839;SDS011;54636;51.684;5.142;2023-07-13T05:56:28;21.10;;;6.97;;
67839;SDS011;54636;51.684;5.142;2023-07-13T05:58:53;25.48;;;6.53;;
67839;SDS011;54636;51.684;5.142;2023-07-13T06:01:18;19.92;;;7.65;;
67839;SDS011;54636;51.684;5.142;2023-07-13T06:03:45;15.25;;;6.45;;
67839;SDS011;54636;51.684;5.142;2023-07-13T06:06:11;20.45;;;6.93;;
67839;SDS011;54636;51.684;5.142;2023-07-13T06:08:37;23.90;;;6.75;;
67839;SDS011;54636;51.684;5.142;2023-07-13T06:13:29;24.88;;;7.95;;
67839;SDS011;54636;51.684;5.142;2023-07-13T06:15:54;20.63;;;7.70;;
67839;SDS011;54636;51.684;5.142;2023-07-13T06:18:19;21.08;;;8.63;;
67839;SDS011;54636;51.684;5.142;2023-07-13T06:20:45;27.15;;;8.43;;
67839;SDS011;54636;51.684;5.142;2023-07-13T06:23:10;18.90;;;7.82;;
67839;SDS011;54636;51.684;5.142;2023-07-13T06:25:35;20.20;;;8.52;;
67839;SDS011;54636;51.684;5.142;2023-07-13T06:28:01;20.05;;;7.75;;
67839;SDS011;54636;51.684;5.142;2023-07-13T06:30:27;23.65;;;8.63;;
67839;SDS011;54636;51.684;5.142;2023-07-13T06:32:52;15.30;;;8.23;;
67839;SDS011;54636;51.684;5.142;2023-07-13T06:35:18;18.35;;;7.22;;
67839;SDS011;54636;51.684;5.142;2023-07-13T06:37:44;21.08;;;8.98;;
67839;SDS011;54636;51.684;5.142;2023-07-13T06:40:09;24.10;;;8.98;;
67839;SDS011;54636;51.684;5.142;2023-07-13T06:42:35;18.52;;;8.73;;
67839;SDS011;54636;51.684;5.142;2023-07-13T06:45:00;23.75;;;9.05;;
67839;SDS011;54636;51.684;5.142;2023-07-13T06:47:26;23.20;;;9.52;;
67839;SDS011;54636;51.684;5.142;2023-07-13T06:49:52;18.70;;;9.13;;
67839;SDS011;54636;51.684;5.142;2023-07-13T06:52:17;24.95;;;9.00;;
67839;SDS011;54636;51.684;5.142;2023-07-13T06:54:43;29.08;;;10.23;;
67839;SDS011;54636;51.684;5.142;2023-07-13T06:57:08;25.88;;;8.43;;
67839;SDS011;54636;51.684;5.142;2023-07-13T06:59:34;24.23;;;8.38;;
67839;SDS011;54636;51.684;5.142;2023-07-13T07:01:59;23.67;;;8.70;;
67839;SDS011;54636;51.684;5.142;2023-07-13T07:04:24;27.02;;;7.80;;
67839;SDS011;54636;51.684;5.142;2023-07-13T07:06:50;23.95;;;7.72;;
67839;SDS011;54636;51.684;5.142;2023-07-13T07:09:15;19.25;;;7.05;;
67839;SDS011;54636;51.684;5.142;2023-07-13T07:11:41;17.70;;;7.10;;
67839;SDS011;54636;51.684;5.142;2023-07-13T07:14:07;21.10;;;7.03;;
67839;SDS011;54636;51.684;5.142;2023-07-13T07:16:33;20.15;;;6.93;;
67839;SDS011;54636;51.684;5.142;2023-07-13T07:18:58;12.18;;;5.80;;
67839;SDS011;54636;51.684;5.142;2023-07-13T07:21:24;13.48;;;6.13;;
67839;SDS011;54636;51.684;5.142;2023-07-13T07:23:49;17.13;;;6.22;;
67839;SDS011;54636;51.684;5.142;2023-07-13T07:26:14;12.80;;;5.32;;
67839;SDS011;54636;51.684;5.142;2023-07-13T07:28:40;13.85;;;5.95;;
67839;SDS011;54636;51.684;5.142;2023-07-13T07:31:05;19.85;;;6.75;;
67839;SDS011;54636;51.684;5.142;2023-07-13T07:33:32;15.07;;;5.72;;
67839;SDS011;54636;51.684;5.142;2023-07-13T07:35:57;11.07;;;5.30;;
67839;SDS011;54636;51.684;5.142;2023-07-13T07:38:23;18.08;;;5.95;;
67839;SDS011;54636;51.684;5.142;2023-07-13T07:40:48;11.50;;;4.93;;
67839;SDS011;54636;51.684;5.142;2023-07-13T07:43:13;16.30;;;5.57;;
67839;SDS011;54636;51.684;5.142;2023-07-13T07:45:39;12.52;;;5.43;;
67839;SDS011;54636;51.684;5.142;2023-07-13T07:48:05;11.23;;;4.57;;
67839;SDS011;54636;51.684;5.142;2023-07-13T07:50:32;13.30;;;4.63;;
67839;SDS011;54636;51.684;5.142;2023-07-13T07:52:57;13.85;;;4.85;;
67839;SDS011;54636;51.684;5.142;2023-07-13T07:55:24;14.63;;;4.50;;
67839;SDS011;54636;51.684;5.142;2023-07-13T07:57:53;8.73;;;4.18;;
67839;SDS011;54636;51.684;5.142;2023-07-13T08:00:19;16.13;;;4.70;;
67839;SDS011;54636;51.684;5.142;2023-07-13T08:02:45;15.45;;;4.38;;
67839;SDS011;54636;51.684;5.142;2023-07-13T08:05:10;7.70;;;3.22;;
67839;SDS011;54636;51.684;5.142;2023-07-13T08:07:37;14.43;;;3.55;;
67839;SDS011;54636;51.684;5.142;2023-07-13T08:10:05;9.70;;;3.67;;
67839;SDS011;54636;51.684;5.142;2023-07-13T08:12:35;7.60;;;3.72;;
67839;SDS011;54636;51.684;5.142;2023-07-13T08:15:01;13.90;;;4.22;;
67839;SDS011;54636;51.684;5.142;2023-07-13T08:17:27;12.05;;;3.63;;
67839;SDS011;54636;51.684;5.142;2023-07-13T08:19:52;17.60;;;4.15;;
67839;SDS011;54636;51.684;5.142;2023-07-13T08:22:18;19.13;;;4.22;;
67839;SDS011;54636;51.684;5.142;2023-07-13T08:24:44;12.38;;;3.60;;
67839;SDS011;54636;51.684;5.142;2023-07-13T08:27:12;12.45;;;3.72;;
67839;SDS011;54636;51.684;5.142;2023-07-13T08:29:38;11.90;;;3.95;;
67839;SDS011;54636;51.684;5.142;2023-07-13T08:32:05;11.85;;;3.55;;
67839;SDS011;54636;51.684;5.142;2023-07-13T08:34:34;10.93;;;3.75;;
67839;SDS011;54636;51.684;5.142;2023-07-13T08:37:00;6.38;;;2.22;;
67839;SDS011;54636;51.684;5.142;2023-07-13T08:39:25;8.02;;;3.30;;
67839;SDS011;54636;51.684;5.142;2023-07-13T08:41:54;7.18;;;2.95;;
67839;SDS011;54636;51.684;5.142;2023-07-13T08:44:36;6.93;;;2.67;;
67839;SDS011;54636;51.684;5.142;2023-07-13T08:47:30;9.23;;;2.65;;
67839;SDS011;54636;51.684;5.142;2023-07-13T08:49:59;8.57;;;2.92;;
67839;SDS011;54636;51.684;5.142;2023-07-13T08:52:29;7.65;;;3.13;;
67839;SDS011;54636;51.684;5.142;2023-07-13T08:55:05;9.05;;;2.53;;
67839;SDS011;54636;51.684;5.142;2023-07-13T08:57:48;9.30;;;2.72;;
67839;SDS011;54636;51.684;5.142;2023-07-13T09:00:32;5.05;;;2.00;;
67839;SDS011;54636;51.684;5.142;2023-07-13T09:03:07;8.48;;;2.75;;
67839;SDS011;54636;51.684;5.142;2023-07-13T09:05:45;8.18;;;3.15;;
67839;SDS011;54636;51.684;5.142;2023-07-13T09:10:59;7.32;;;2.47;;
67839;SDS011;54636;51.684;5.142;2023-07-13T09:13:39;7.32;;;2.60;;
67839;SDS011;54636;51.684;5.142;2023-07-13T09:16:22;10.75;;;2.83;;
67839;SDS011;54636;51.684;5.142;2023-07-13T09:18:50;9.27;;;3.10;;
67839;SDS011;54636;51.684;5.142;2023-07-13T09:21:22;4.85;;;2.22;;
67839;SDS011;54636;51.684;5.142;2023-07-13T09:23:53;7.95;;;2.83;;
67839;SDS011;54636;51.684;5.142;2023-07-13T09:26:22;9.07;;;2.67;;
67839;SDS011;54636;51.684;5.142;2023-07-13T09:28:57;7.32;;;3.58;;
67839;SDS011;54636;51.684;5.142;2023-07-13T09:31:28;8.23;;;2.80;;
67839;SDS011;54636;51.684;5.142;2023-07-13T09:33:59;5.38;;;2.63;;
67839;SDS011;54636;51.684;5.142;2023-07-13T09:36:28;7.78;;;2.80;;
67839;SDS011;54636;51.684;5.142;2023-07-13T09:39:13;8.90;;;2.85;;
67839;SDS011;54636;51.684;5.142;2023-07-13T09:44:50;6.20;;;3.00;;
67839;SDS011;54636;51.684;5.142;2023-07-13T09:47:20;12.05;;;2.97;;
67839;SDS011;54636;51.684;5.142;2023-07-13T09:49:48;7.80;;;2.58;;
67839;SDS011;54636;51.684;5.142;2023-07-13T09:52:20;4.57;;;1.98;;
67839;SDS011;54636;51.684;5.142;2023-07-13T09:54:48;3.90;;;2.03;;
67839;SDS011;54636;51.684;5.142;2023-07-13T09:59:45;7.45;;;2.00;;
67839;SDS011;54636;51.684;5.142;2023-07-13T10:04:55;8.57;;;2.70;;
67839;SDS011;54636;51.684;5.142;2023-07-13T10:07:28;7.70;;;2.42;;
67839;SDS011;54636;51.684;5.142;2023-07-13T10:09:54;10.13;;;2.83;;
67839;SDS011;54636;51.684;5.142;2023-07-13T10:12:21;4.25;;;2.08;;
67839;SDS011;54636;51.684;5.142;2023-07-13T10:17:18;10.23;;;2.53;;
67839;SDS011;54636;51.684;5.142;2023-07-13T10:19:47;3.40;;;1.40;;
67839;SDS011;54636;51.684;5.142;2023-07-13T10:22:14;6.47;;;2.45;;
67839;SDS011;54636;51.684;5.142;2023-07-13T10:24:52;4.50;;;2.20;;
67839;SDS011;54636;51.684;5.142;2023-07-13T10:27:20;5.43;;;2.17;;
67839;SDS011;54636;51.684;5.142;2023-07-13T10:32:28;8.68;;;2.67;;
67839;SDS011;54636;51.684;5.142;2023-07-13T10:34:55;12.90;;;2.65;;
67839;SDS011;54636;51.684;5.142;2023-07-13T10:37:24;10.98;;;2.80;;
67839;SDS011;54636;51.684;5.142;2023-07-13T10:39:53;9.65;;;2.35;;
67839;SDS011;54636;51.684;5.142;2023-07-13T10:44:57;8.38;;;2.42;;
67839;SDS011;54636;51.684;5.142;2023-07-13T10:47:23;7.28;;;2.15;;
67839;SDS011;54636;51.684;5.142;2023-07-13T10:49:50;10.07;;;2.58;;
67839;SDS011;54636;51.684;5.142;2023-07-13T10:55:03;7.68;;;2.20;;
67839;SDS011;54636;51.684;5.142;2023-07-13T10:57:28;6.05;;;2.58;;
67839;SDS011;54636;51.684;5.142;2023-07-13T11:02:30;9.02;;;2.30;;
67839;SDS011;54636;51.684;5.142;2023-07-13T11:04:56;5.32;;;2.40;;
67839;SDS011;54636;51.684;5.142;2023-07-13T11:09:54;2.22;;;1.45;;
67839;SDS011;54636;51.684;5.142;2023-07-13T11:19:52;8.48;;;1.98;;
67839;SDS011;54636;51.684;5.142;2023-07-13T11:22:26;10.20;;;2.60;;
67839;SDS011;54636;51.684;5.142;2023-07-13T11:28:16;5.07;;;2.17;;
67839;SDS011;54636;51.684;5.142;2023-07-13T11:30:47;6.78;;;2.47;;
67839;SDS011;54636;51.684;5.142;2023-07-13T11:38:17;5.50;;;2.08;;
67839;SDS011;54636;51.684;5.142;2023-07-13T11:40:45;2.03;;;1.73;;
67839;SDS011;54636;51.684;5.142;2023-07-13T11:43:13;6.28;;;2.10;;
67839;SDS011;54636;51.684;5.142;2023-07-13T11:45:40;6.95;;;1.92;;
67839;SDS011;54636;51.684;5.142;2023-07-13T11:50:54;4.78;;;1.98;;
67839;SDS011;54636;51.684;5.142;2023-07-13T11:53:27;4.10;;;2.17;;
67839;SDS011;54636;51.684;5.142;2023-07-13T11:55:54;8.80;;;1.60;;
67839;SDS011;54636;51.684;5.142;2023-07-13T11:58:23;2.80;;;1.77;;
67839;SDS011;54636;51.684;5.142;2023-07-13T12:00:53;2.70;;;2.10;;
67839;SDS011;54636;51.684;5.142;2023-07-13T12:03:21;3.65;;;2.08;;
67839;SDS011;54636;51.684;5.142;2023-07-13T12:08:48;4.82;;;1.77;;
67839;SDS011;54636;51.684;5.142;2023-07-13T12:11:17;3.00;;;1.73;;
67839;SDS011;54636;51.684;5.142;2023-07-13T12:18:55;2.05;;;1.88;;
67839;SDS011;54636;51.684;5.142;2023-07-13T12:21:23;5.68;;;1.95;;
67839;SDS011;54636;51.684;5.142;2023-07-13T12:23:59;1.67;;;1.55;;
67839;SDS011;54636;51.684;5.142;2023-07-13T12:26:27;2.45;;;1.77;;
67839;SDS011;54636;51.684;5.142;2023-07-13T12:28:55;3.15;;;1.30;;
67839;SDS011;54636;51.684;5.142;2023-07-13T12:31:26;1.90;;;1.65;;
67839;SDS011;54636;51.684;5.142;2023-07-13T12:34:05;4.72;;;2.13;;
67839;SDS011;54636;51.684;5.142;2023-07-13T12:36:34;1.80;;;1.48;;
67839;SDS011;54636;51.684;5.142;2023-07-13T12:39:11;3.03;;;1.60;;
67839;SDS011;54636;51.684;5.142;2023-07-13T12:41:39;5.13;;;1.75;;
67839;SDS011;54636;51.684;5.142;2023-07-13T12:44:08;2.90;;;1.88;;
67839;SDS011;54636;51.684;5.142;2023-07-13T12:46:36;1.98;;;1.30;;
67839;SDS011;54636;51.684;5.142;2023-07-13T12:49:05;4.53;;;1.55;;
67839;SDS011;54636;51.684;5.142;2023-07-13T12:51:32;2.38;;;1.83;;
67839;SDS011;54636;51.684;5.142;2023-07-13T12:54:19;15.23;;;2.33;;
67839;SDS011;54636;51.684;5.142;2023-07-13T12:56:44;3.10;;;1.88;;
67839;SDS011;54636;51.684;5.142;2023-07-13T12:59:16;4.00;;;1.83;;
67839;SDS011;54636;51.684;5.142;2023-07-13T13:01:44;3.72;;;2.03;;
67839;SDS011;54636;51.684;5.142;2023-07-13T13:04:10;1.63;;;1.45;;
67839;SDS011;54636;51.684;5.142;2023-07-13T13:06:38;5.82;;;1.65;;
67839;SDS011;54636;51.684;5.142;2023-07-13T13:09:05;2.47;;;1.85;;
67839;SDS011;54636;51.684;5.142;2023-07-13T13:11:36;6.85;;;1.83;;
67839;SDS011;54636;51.684;5.142;2023-07-13T13:14:02;2.03;;;1.45;;
67839;SDS011;54636;51.684;5.142;2023-07-13T13:16:30;1.58;;;1.33;;
67839;SDS011;54636;51.684;5.142;2023-07-13T13:19:13;4.65;;;2.05;;
67839;SDS011;54636;51.684;5.142;2023-07-13T13:21:42;2.72;;;1.40;;
67839;SDS011;54636;51.684;5.142;2023-07-13T13:24:12;4.00;;;1.52;;
67839;SDS011;54636;51.684;5.142;2023-07-13T13:26:42;4.13;;;1.42;;
67839;SDS011;54636;51.684;5.142;2023-07-13T13:29:14;4.63;;;1.75;;
67839;SDS011;54636;51.684;5.142;2023-07-13T13:31:49;2.75;;;1.55;;
67839;SDS011;54636;51.684;5.142;2023-07-13T13:34:16;6.55;;;2.08;;
67839;SDS011;54636;51.684;5.142;2023-07-13T13:36:43;4.47;;;1.65;;
67839;SDS011;54636;51.684;5.142;2023-07-13T13:41:49;5.97;;;1.95;;
67839;SDS011;54636;51.684;5.142;2023-07-13T13:44:16;10.02;;;2.65;;
67839;SDS011;54636;51.684;5.142;2023-07-13T13:46:44;3.50;;;1.63;;
67839;SDS011;54636;51.684;5.142;2023-07-13T13:49:16;3.28;;;1.63;;
67839;SDS011;54636;51.684;5.142;2023-07-13T13:51:43;3.05;;;1.90;;
67839;SDS011;54636;51.684;5.142;2023-07-13T13:54:13;4.43;;;2.38;;
67839;SDS011;54636;51.684;5.142;2023-07-13T13:56:44;4.82;;;1.80;;
67839;SDS011;54636;51.684;5.142;2023-07-13T13:59:12;3.42;;;1.52;;
67839;SDS011;54636;51.684;5.142;2023-07-13T14:01:38;3.67;;;1.70;;
67839;SDS011;54636;51.684;5.142;2023-07-13T14:04:04;13.85;;;2.03;;
67839;SDS011;54636;51.684;5.142;2023-07-13T14:06:31;5.68;;;1.92;;
67839;SDS011;54636;51.684;5.142;2023-07-13T14:08:59;4.00;;;1.73;;
67839;SDS011;54636;51.684;5.142;2023-07-13T14:11:26;7.07;;;2.35;;
67839;SDS011;54636;51.684;5.142;2023-07-13T14:13:55;6.43;;;2.75;;
67839;SDS011;54636;51.684;5.142;2023-07-13T14:16:24;7.28;;;2.05;;
67839;SDS011;54636;51.684;5.142;2023-07-13T14:18:56;3.75;;;2.05;;
67839;SDS011;54636;51.684;5.142;2023-07-13T14:21:24;4.45;;;1.90;;
67839;SDS011;54636;51.684;5.142;2023-07-13T14:23:50;3.20;;;1.77;;
67839;SDS011;54636;51.684;5.142;2023-07-13T14:26:17;3.65;;;2.20;;
67839;SDS011;54636;51.684;5.142;2023-07-13T14:28:45;2.95;;;1.70;;
67839;SDS011;54636;51.684;5.142;2023-07-13T14:31:13;3.63;;;2.50;;
67839;SDS011;54636;51.684;5.142;2023-07-13T14:33:40;2.55;;;1.52;;
67839;SDS011;54636;51.684;5.142;2023-07-13T14:36:15;4.25;;;1.95;;
67839;SDS011;54636;51.684;5.142;2023-07-13T14:38:44;3.25;;;1.85;;
67839;SDS011;54636;51.684;5.142;2023-07-13T14:41:09;3.90;;;1.70;;
67839;SDS011;54636;51.684;5.142;2023-07-13T14:43:35;2.67;;;1.42;;
67839;SDS011;54636;51.684;5.142;2023-07-13T14:46:00;2.75;;;1.48;;
67839;SDS011;54636;51.684;5.142;2023-07-13T14:48:26;4.10;;;1.70;;
67839;SDS011;54636;51.684;5.142;2023-07-13T14:50:53;3.67;;;1.80;;
67839;SDS011;54636;51.684;5.142;2023-07-13T14:55:47;2.75;;;1.75;;
67839;SDS011;54636;51.684;5.142;2023-07-13T14:58:12;3.85;;;1.52;;
67839;SDS011;54636;51.684;5.142;2023-07-13T15:00:38;2.25;;;1.55;;
67839;SDS011;54636;51.684;5.142;2023-07-13T15:03:05;4.68;;;1.27;;
67839;SDS011;54636;51.684;5.142;2023-07-13T15:05:41;3.60;;;1.70;;
67839;SDS011;54636;51.684;5.142;2023-07-13T15:08:07;4.32;;;1.38;;
67839;SDS011;54636;51.684;5.142;2023-07-13T15:10:35;5.03;;;1.95;;
67839;SDS011;54636;51.684;5.142;2023-07-13T15:13:13;2.35;;;1.17;;
67839;SDS011;54636;51.684;5.142;2023-07-13T15:15:40;2.03;;;1.40;;
67839;SDS011;54636;51.684;5.142;2023-07-13T15:18:09;2.97;;;1.40;;
67839;SDS011;54636;51.684;5.142;2023-07-13T15:20:36;3.28;;;1.60;;
67839;SDS011;54636;51.684;5.142;2023-07-13T15:23:02;3.03;;;1.70;;
67839;SDS011;54636;51.684;5.142;2023-07-13T15:25:29;2.80;;;1.35;;
67839;SDS011;54636;51.684;5.142;2023-07-13T15:27:56;4.35;;;1.55;;
67839;SDS011;54636;51.684;5.142;2023-07-13T15:30:24;2.25;;;1.77;;
67839;SDS011;54636;51.684;5.142;2023-07-13T15:32:52;5.93;;;2.22;;
67839;SDS011;54636;51.684;5.142;2023-07-13T15:35:18;2.45;;;1.73;;
67839;SDS011;54636;51.684;5.142;2023-07-13T15:37:45;6.13;;;2.08;;
67839;SDS011;54636;51.684;5.142;2023-07-13T15:40:11;6.43;;;1.70;;
67839;SDS011;54636;51.684;5.142;2023-07-13T15:42:38;2.97;;;1.85;;